Time;durP1;ratioP1;P1;durP2;ratioP2;P2;SDS_P1;SDS_P2;PMS_P1;PMS_P2;Temp;Humidity;BMP_temperature;BMP_pressure;BME280_temperature;BME280_humidity;BME280_pressure;Samples;Min_cycle;Max_cycle;Signal;HPM_P1;HPM_P2
2021/06/08 00:02:54;;;;;;;96.05;38.80;;;16.40;99.90;;;;;;6250907;28;20590;-76
2021/06/08 00:05:56;;;;;;;121.10;43.65;;;16.40;99.90;;;;;;6250702;28;20088;-76
2021/06/08 00:08:58;;;;;;;100.50;39.92;;;16.40;99.90;;;;;;6250617;28;20136;-76
2021/06/08 00:11:59;;;;;;;115.47;42.78;;;16.50;99.90;;;;;;6251159;28;20045;-76
2021/06/08 00:15:03;;;;;;;105.43;40.28;;;16.50;99.90;;;;;;6249063;28;20132;-76
2021/06/08 00:18:05;;;;;;;80.70;37.20;;;16.50;99.90;;;;;;6256364;28;20128;-76
2021/06/08 00:21:06;;;;;;;101.88;42.78;;;16.50;99.90;;;;;;6250217;28;20088;-76
2021/06/08 00:24:08;;;;;;;110.15;41.45;;;16.50;99.90;;;;;;6272680;28;20074;-76
2021/06/08 00:27:09;;;;;;;99.90;41.83;;;16.60;99.90;;;;;;6275013;28;20655;-76
2021/06/08 00:30:13;;;;;;;100.80;40.22;;;16.60;99.90;;;;;;6274840;28;20176;-76
2021/06/08 00:33:14;;;;;;;126.93;42.20;;;16.60;99.90;;;;;;6275478;28;20045;-76
2021/06/08 00:36:16;;;;;;;131.65;48.15;;;16.60;99.90;;;;;;6275684;28;20055;-76
2021/06/08 00:39:17;;;;;;;108.38;45.00;;;16.60;99.90;;;;;;6274627;28;20128;-75
2021/06/08 00:42:27;;;;;;;110.20;44.75;;;16.60;99.90;;;;;;6276680;28;20067;-76
2021/06/08 00:45:29;;;;;;;98.63;42.15;;;16.60;99.90;;;;;;6276244;28;20040;-76
2021/06/08 00:48:31;;;;;;;101.00;45.15;;;16.60;99.90;;;;;;6273029;28;20068;-76
2021/06/08 00:51:32;;;;;;;93.25;41.20;;;16.70;99.90;;;;;;6276533;28;20168;-77
2021/06/08 00:54:34;;;;;;;97.63;42.67;;;16.70;99.90;;;;;;6274171;28;20072;-77
2021/06/08 00:57:35;;;;;;;97.80;44.60;;;16.70;99.90;;;;;;6275474;28;20069;-77
2021/06/08 01:00:38;;;;;;;95.53;43.30;;;16.70;99.90;;;;;;6273244;28;20534;-77
2021/06/08 01:03:39;;;;;;;92.00;39.15;;;16.80;99.90;;;;;;6273799;28;19966;-76
2021/06/08 01:06:41;;;;;;;92.80;39.65;;;16.80;99.90;;;;;;6274286;28;20051;-76
2021/06/08 01:09:42;;;;;;;94.45;34.33;;;16.70;99.90;;;;;;6273169;28;20037;-77
2021/06/08 01:12:44;;;;;;;89.78;35.58;;;16.70;99.90;;;;;;6274406;28;20048;-77
2021/06/08 01:15:48;;;;;;;88.68;33.65;;;16.60;99.90;;;;;;6273738;28;20045;-77
2021/06/08 01:18:50;;;;;;;90.10;35.20;;;16.60;99.90;;;;;;6273411;28;20068;-77
2021/06/08 01:21:53;;;;;;;82.60;37.50;;;16.60;99.90;;;;;;6273810;28;20045;-77
2021/06/08 01:24:54;;;;;;;96.45;38.00;;;16.60;99.90;;;;;;6273896;28;20053;-77
2021/06/08 01:27:56;;;;;;;89.38;36.90;;;16.50;99.90;;;;;;6273895;28;20080;-77
2021/06/08 01:30:58;;;;;;;84.45;35.97;;;16.50;99.90;;;;;;6273087;28;20135;-77
2021/06/08 01:34:00;;;;;;;73.57;34.38;;;16.50;99.90;;;;;;6273466;28;20507;-77
2021/06/08 01:37:04;;;;;;;128.90;39.03;;;16.50;99.90;;;;;;6273426;28;20079;-77
2021/06/08 01:40:08;;;;;;;76.18;33.95;;;16.40;99.90;;;;;;6273241;28;20574;-77
2021/06/08 01:43:09;;;;;;;83.57;34.70;;;16.40;99.90;;;;;;6273121;28;20045;-77
2021/06/08 01:46:10;;;;;;;73.80;34.33;;;16.40;99.90;;;;;;6273121;28;20135;-77
2021/06/08 01:49:12;;;;;;;90.47;35.28;;;16.40;99.90;;;;;;6272565;28;20124;-76
2021/06/08 01:52:19;;;;;;;89.60;34.47;;;16.40;99.90;;;;;;6273569;28;20498;-76
2021/06/08 01:55:24;;;;;;;87.18;33.70;;;16.30;99.90;;;;;;6272822;28;20127;-77
2021/06/08 01:58:33;;;;;;;121.43;39.03;;;16.30;99.90;;;;;;6272980;28;20040;-76
2021/06/08 02:01:46;;;;;;;87.72;36.92;;;16.40;99.90;;;;;;6272598;28;20456;-77
2021/06/08 02:04:53;;;;;;;110.28;38.83;;;16.40;99.90;;;;;;6272675;28;20467;-77
2021/06/08 02:08:02;;;;;;;81.25;35.97;;;16.40;99.90;;;;;;6272986;28;20163;-77
2021/06/08 02:11:07;;;;;;;91.35;40.08;;;16.50;99.90;;;;;;6272306;28;20128;-76
2021/06/08 02:14:17;;;;;;;88.15;40.10;;;16.50;99.90;;;;;;6272488;28;20461;-77
2021/06/08 02:17:23;;;;;;;134.07;43.80;;;16.50;99.90;;;;;;6272360;28;20124;-77
2021/06/08 02:20:29;;;;;;;97.35;38.38;;;16.50;99.90;;;;;;6268939;28;20144;-77
2021/06/08 02:23:35;;;;;;;71.88;35.08;;;16.50;99.90;;;;;;6272166;28;20048;-77
2021/06/08 02:26:41;;;;;;;75.60;35.17;;;16.50;99.90;;;;;;6271893;28;20044;-77
2021/06/08 02:29:47;;;;;;;131.75;40.55;;;16.50;99.90;;;;;;6271878;28;20524;-77
2021/06/08 02:32:50;;;;;;;87.05;33.72;;;16.40;99.90;;;;;;6272059;28;20049;-77
2021/06/08 02:35:53;;;;;;;75.28;33.28;;;16.40;99.90;;;;;;6272804;28;20128;-77
2021/06/08 02:38:58;;;;;;;71.30;35.00;;;16.40;99.90;;;;;;6271613;28;20141;-77
2021/06/08 02:42:00;;;;;;;78.22;34.28;;;16.40;99.90;;;;;;6272003;28;20051;-77
2021/06/08 02:45:04;;;;;;;74.75;33.40;;;16.50;99.90;;;;;;6271648;28;20052;-77
2021/06/08 02:48:06;;;;;;;80.25;37.17;;;16.50;99.90;;;;;;6271871;28;20622;-77
2021/06/08 02:51:09;;;;;;;104.53;37.67;;;16.50;99.90;;;;;;6271368;28;20121;-77
2021/06/08 02:54:13;;;;;;;80.68;33.22;;;16.50;99.90;;;;;;6271668;28;20071;-77
2021/06/08 02:57:14;;;;;;;101.95;41.35;;;16.60;99.90;;;;;;6271582;28;20045;-77
2021/06/08 03:00:17;;;;;;;84.85;38.50;;;16.60;99.90;;;;;;6271499;28;20426;-76
2021/06/08 03:03:21;;;;;;;102.22;41.20;;;16.60;99.90;;;;;;6271213;28;20068;-77
2021/06/08 03:06:27;;;;;;;106.47;46.72;;;16.60;99.90;;;;;;6271447;28;20124;-77
2021/06/08 03:09:35;;;;;;;123.03;51.63;;;16.60;99.90;;;;;;6271023;28;20570;-77
2021/06/08 03:12:41;;;;;;;127.75;52.13;;;16.70;99.90;;;;;;6271657;28;20147;-77
2021/06/08 03:15:48;;;;;;;98.72;44.50;;;16.70;99.90;;;;;;6271511;28;20128;-77
2021/06/08 03:18:53;;;;;;;92.82;40.83;;;16.70;99.90;;;;;;6269846;28;20040;-76
2021/06/08 03:21:59;;;;;;;99.95;39.85;;;16.70;99.90;;;;;;6271377;28;20045;-77
2021/06/08 03:25:03;;;;;;;106.32;44.20;;;16.70;99.90;;;;;;6271046;28;20139;-77
2021/06/08 03:28:06;;;;;;;113.85;42.42;;;16.70;99.90;;;;;;6271706;28;20468;-76
2021/06/08 03:31:08;;;;;;;101.63;41.78;;;16.70;99.90;;;;;;6270721;28;20483;-76
2021/06/08 03:34:15;;;;;;;121.15;43.28;;;16.70;99.90;;;;;;6275487;28;20106;-76
2021/06/08 03:37:19;;;;;;;101.45;37.28;;;16.80;99.90;;;;;;6276054;28;20139;-76
2021/06/08 03:40:23;;;;;;;96.60;42.92;;;16.80;99.90;;;;;;6275895;28;20049;-76
2021/06/08 03:43:26;;;;;;;90.57;43.08;;;16.80;99.90;;;;;;6275691;28;20124;-76
2021/06/08 03:46:27;;;;;;;118.78;51.28;;;16.80;99.90;;;;;;6276308;28;20059;-76
2021/06/08 03:49:29;;;;;;;102.68;47.45;;;16.90;99.90;;;;;;6275292;28;20132;-76
2021/06/08 03:52:31;;;;;;;117.70;52.85;;;16.90;99.90;;;;;;6276394;28;20103;-76
2021/06/08 03:55:33;;;;;;;116.13;48.85;;;16.90;99.90;;;;;;6275540;28;20575;-76
2021/06/08 03:58:35;;;;;;;117.90;52.92;;;17.00;99.90;;;;;;6275255;28;20072;-76
2021/06/08 04:01:37;;;;;;;138.70;57.80;;;17.00;99.90;;;;;;6275554;28;20521;-76
2021/06/08 04:04:39;;;;;;;128.90;53.75;;;17.00;99.90;;;;;;6275699;28;20049;-76
2021/06/08 04:07:41;;;;;;;116.90;54.20;;;17.10;99.90;;;;;;6275438;28;20599;-76
2021/06/08 04:10:46;;;;;;;124.10;54.67;;;17.10;99.90;;;;;;6274718;28;20059;-76
2021/06/08 04:13:47;;;;;;;103.57;51.33;;;17.10;99.90;;;;;;6275519;28;20128;-76
2021/06/08 04:16:49;;;;;;;118.43;56.47;;;17.10;99.90;;;;;;6274962;28;20087;-76
2021/06/08 04:19:50;;;;;;;91.88;47.10;;;17.10;99.90;;;;;;6275165;28;20396;-76
2021/06/08 04:22:55;;;;;;;117.63;55.53;;;17.20;99.90;;;;;;6275298;28;20076;-76
2021/06/08 04:25:59;;;;;;;153.80;64.18;;;17.20;99.90;;;;;;6275381;28;20506;-76
2021/06/08 04:29:01;;;;;;;103.90;49.30;;;17.30;99.90;;;;;;6275166;28;20135;-76
2021/06/08 04:32:02;;;;;;;102.85;54.22;;;17.50;99.90;;;;;;6275684;28;20048;-76
2021/06/08 04:35:06;;;;;;;97.75;52.67;;;17.50;99.90;;;;;;6274931;28;20068;-76
2021/06/08 04:38:07;;;;;;;83.90;46.05;;;17.60;99.90;;;;;;6274545;28;20075;-76
2021/06/08 04:41:10;;;;;;;78.10;43.05;;;17.60;99.90;;;;;;6274412;28;20114;-76
2021/06/08 04:44:16;;;;;;;82.03;46.85;;;17.70;99.90;;;;;;6274161;28;20490;-76
2021/06/08 04:47:19;;;;;;;67.97;44.50;;;17.80;99.90;;;;;;6274482;28;20124;-76
2021/06/08 04:50:21;;;;;;;76.13;45.13;;;17.80;99.90;;;;;;6273884;28;20124;-76
2021/06/08 04:53:23;;;;;;;80.50;46.28;;;17.80;99.90;;;;;;6274515;28;20510;-76
2021/06/08 04:56:26;;;;;;;70.90;44.20;;;17.80;99.90;;;;;;6274508;28;20164;-76
2021/06/08 04:59:33;;;;;;;67.60;42.50;;;17.80;99.90;;;;;;6273902;28;20051;-76
2021/06/08 05:02:38;;;;;;;55.20;40.50;;;17.80;99.90;;;;;;6273996;28;20072;-76
2021/06/08 05:05:43;;;;;;;62.50;39.25;;;17.90;99.90;;;;;;6274478;28;20132;-76
2021/06/08 05:08:49;;;;;;;58.35;38.78;;;17.80;99.90;;;;;;6273676;28;20514;-76
2021/06/08 05:11:54;;;;;;;57.95;38.45;;;17.80;99.90;;;;;;6274423;28;20048;-76
2021/06/08 05:15:00;;;;;;;59.05;38.63;;;17.80;99.90;;;;;;6273933;28;20048;-76
2021/06/08 05:18:02;;;;;;;69.15;45.40;;;17.80;99.90;;;;;;6273678;28;20068;-76
2021/06/08 05:21:05;;;;;;;52.03;35.83;;;17.80;99.90;;;;;;6273424;28;20515;-76
2021/06/08 05:24:09;;;;;;;59.45;40.47;;;17.80;99.90;;;;;;6273539;28;20059;-76
2021/06/08 05:27:12;;;;;;;51.00;39.28;;;17.90;99.90;;;;;;6273612;28;20069;-76
2021/06/08 05:30:14;;;;;;;58.03;39.50;;;17.90;99.90;;;;;;6272807;28;20077;-76
2021/06/08 05:33:20;;;;;;;58.83;41.47;;;18.00;99.90;;;;;;6273035;28;20124;-76
2021/06/08 05:36:21;;;;;;;53.17;39.10;;;18.10;99.90;;;;;;6274006;28;20080;-76
2021/06/08 05:39:23;;;;;;;48.38;39.05;;;18.10;99.90;;;;;;6272966;28;20478;-76
2021/06/08 05:42:25;;;;;;;56.75;40.55;;;18.10;99.90;;;;;;6272887;28;20838;-76
2021/06/08 05:45:30;;;;;;;55.90;41.72;;;18.20;99.90;;;;;;6273016;28;20065;-76
2021/06/08 05:48:32;;;;;;;55.03;40.95;;;18.20;99.90;;;;;;6272931;28;20514;-76
2021/06/08 05:51:35;;;;;;;52.28;39.13;;;18.30;99.90;;;;;;6272698;28;20433;-76
2021/06/08 05:54:37;;;;;;;52.03;40.67;;;18.30;99.90;;;;;;6272706;28;20136;-76
2021/06/08 05:57:40;;;;;;;49.90;40.20;;;18.40;99.90;;;;;;6271480;28;20041;-76
2021/06/08 06:00:42;;;;;;;58.38;42.75;;;18.40;99.90;;;;;;6272688;28;20135;-76
2021/06/08 06:03:43;;;;;;;49.22;40.75;;;18.40;99.90;;;;;;6267802;28;20509;-76
2021/06/08 06:06:46;;;;;;;47.25;38.75;;;18.50;99.90;;;;;;6267229;28;20118;-76
2021/06/08 06:09:47;;;;;;;42.35;36.85;;;18.80;99.90;;;;;;6271618;28;20127;-76
2021/06/08 06:12:52;;;;;;;40.53;36.13;;;18.90;99.90;;;;;;6272288;28;20052;-75
2021/06/08 06:15:55;;;;;;;40.10;34.92;;;19.10;99.90;;;;;;6272501;28;20052;-76
2021/06/08 06:18:58;;;;;;;42.47;34.13;;;19.00;99.90;;;;;;6271807;28;20472;-75
2021/06/08 06:21:59;;;;;;;44.97;35.47;;;18.90;99.90;;;;;;6271843;28;20037;-76
2021/06/08 06:25:01;;;;;;;48.75;36.05;;;18.90;99.90;;;;;;6272058;28;20059;-76
2021/06/08 06:28:04;;;;;;;38.50;34.33;;;18.80;99.90;;;;;;6272910;28;20085;-76
2021/06/08 06:31:07;;;;;;;41.42;35.08;;;18.80;99.90;;;;;;6271402;28;20117;-76
2021/06/08 06:34:10;;;;;;;45.45;35.25;;;18.80;99.90;;;;;;6271738;28;20052;-76
2021/06/08 06:37:13;;;;;;;37.40;33.22;;;18.90;99.90;;;;;;6271873;28;20415;-76
2021/06/08 06:40:17;;;;;;;40.28;33.65;;;19.00;99.90;;;;;;6271662;28;20131;-76
2021/06/08 06:43:25;;;;;;;44.38;35.42;;;19.00;99.90;;;;;;6271708;28;20073;-76
2021/06/08 06:46:31;;;;;;;39.27;34.80;;;19.10;99.90;;;;;;6271630;28;20195;-76
2021/06/08 06:49:33;;;;;;;40.90;34.05;;;19.10;99.90;;;;;;6271625;28;20358;-75
2021/06/08 06:52:36;;;;;;;37.38;33.22;;;19.10;99.90;;;;;;6271629;28;20478;-75
2021/06/08 06:55:39;;;;;;;42.85;34.35;;;19.10;99.90;;;;;;6271366;28;20132;-75
2021/06/08 06:58:42;;;;;;;40.22;34.78;;;19.10;99.90;;;;;;6271350;28;20036;-75
2021/06/08 07:01:45;;;;;;;41.42;35.05;;;19.10;99.90;;;;;;6271677;28;20495;-75
2021/06/08 07:04:47;;;;;;;38.70;34.28;;;19.20;99.90;;;;;;6272053;28;20084;-76
2021/06/08 07:07:49;;;;;;;40.65;35.28;;;19.20;99.90;;;;;;6271263;28;20080;-75
2021/06/08 07:10:52;;;;;;;39.22;34.90;;;19.30;99.90;;;;;;6271133;28;20076;-76
2021/06/08 07:13:56;;;;;;;43.00;35.05;;;19.40;99.90;;;;;;6271399;28;20044;-76
2021/06/08 07:16:58;;;;;;;39.35;35.38;;;19.50;99.90;;;;;;6271583;28;20081;-77
2021/06/08 07:20:00;;;;;;;39.25;34.22;;;19.50;99.90;;;;;;6271269;28;20528;-76
2021/06/08 07:23:02;;;;;;;38.50;34.38;;;19.60;99.90;;;;;;6271220;28;20045;-77
2021/06/08 07:26:04;;;;;;;38.78;33.13;;;19.70;99.90;;;;;;6271810;28;20433;-79
2021/06/08 07:29:10;;;;;;;39.17;34.33;;;19.80;99.90;;;;;;6271212;28;20135;-77
2021/06/08 07:32:20;;;;;;;35.38;31.20;;;19.90;99.90;;;;;;6271555;28;20494;-77
2021/06/08 07:35:28;;;;;;;34.42;30.20;;;20.00;99.90;;;;;;6271109;28;20047;-77
2021/06/08 07:38:35;;;;;;;38.30;30.38;;;20.00;99.90;;;;;;6271211;28;20084;-77
2021/06/08 07:41:41;;;;;;;30.85;27.83;;;20.10;99.90;;;;;;6270690;28;20510;-77
2021/06/08 07:44:49;;;;;;;32.42;28.55;;;20.10;99.90;;;;;;6271468;28;20132;-77
2021/06/08 07:47:53;;;;;;;30.58;27.38;;;20.10;99.90;;;;;;6271625;28;20091;-77
2021/06/08 07:50:56;;;;;;;43.45;27.77;;;20.10;99.90;;;;;;6270618;28;20128;-77
2021/06/08 07:53:58;;;;;;;30.20;27.33;;;20.10;99.90;;;;;;6270736;28;20051;-77
2021/06/08 07:57:00;;;;;;;29.30;26.20;;;20.20;99.90;;;;;;6271270;28;20559;-77
2021/06/08 08:00:04;;;;;;;29.67;26.42;;;20.30;99.90;;;;;;6271654;28;20053;-77
2021/06/08 08:03:25;;;;;;;28.25;25.23;;;20.40;99.90;;;;;;6270930;28;20037;-77
2021/06/08 08:06:27;;;;;;;29.67;26.25;;;20.60;99.90;;;;;;6270413;28;20045;-77
2021/06/08 08:09:30;;;;;;;25.38;22.92;;;20.90;99.90;;;;;;6271117;28;20124;-77
2021/06/08 08:12:34;;;;;;;27.17;24.42;;;21.00;99.90;;;;;;6271311;28;20049;-76
2021/06/08 08:15:38;;;;;;;28.40;25.52;;;21.10;99.90;;;;;;6270585;28;20144;-76
2021/06/08 08:18:40;;;;;;;26.83;24.05;;;21.20;99.90;;;;;;6270571;28;20128;-76
2021/06/08 08:21:42;;;;;;;28.75;24.35;;;21.30;99.90;;;;;;6275710;28;20072;-76
2021/06/08 08:24:44;;;;;;;23.17;20.88;;;21.30;99.90;;;;;;6275771;28;20140;-76
2021/06/08 08:27:45;;;;;;;30.42;24.17;;;21.50;99.90;;;;;;6276433;28;20055;-75
2021/06/08 08:30:48;;;;;;;26.83;23.90;;;21.60;99.90;;;;;;6274852;28;20132;-76
2021/06/08 08:33:50;;;;;;;30.85;23.10;;;21.80;99.90;;;;;;6275895;28;20067;-76
2021/06/08 08:36:51;;;;;;;26.90;24.15;;;22.10;99.90;;;;;;6275463;28;20099;-76
2021/06/08 08:39:52;;;;;;;25.67;23.15;;;22.40;99.10;;;;;;6275089;28;20554;-76
2021/06/08 08:42:54;;;;;;;25.98;23.48;;;22.60;97.90;;;;;;6275129;28;20128;-76
2021/06/08 08:45:56;;;;;;;25.88;23.15;;;23.00;97.80;;;;;;6274869;28;20519;-76
2021/06/08 08:48:58;;;;;;;24.13;21.52;;;23.30;96.90;;;;;;6274106;28;20422;-73
2021/06/08 08:52:00;;;;;;;23.85;21.42;;;23.70;95.40;;;;;;6274613;28;20053;-76
2021/06/08 08:55:03;;;;;;;27.38;21.63;;;24.10;93.70;;;;;;6274339;28;20075;-76
2021/06/08 08:58:06;;;;;;;28.17;21.50;;;24.40;93.10;;;;;;6273990;28;20418;-77
2021/06/08 09:01:09;;;;;;;24.77;21.00;;;24.80;92.00;;;;;;6274059;28;20120;-77
2021/06/08 09:04:11;;;;;;;24.92;20.92;;;24.90;91.10;;;;;;6274127;28;20088;-76
2021/06/08 09:07:12;;;;;;;25.33;22.83;;;24.90;90.90;;;;;;6274456;28;20136;-76
2021/06/08 09:10:14;;;;;;;23.17;21.08;;;25.00;90.00;;;;;;6276233;28;20174;-77
2021/06/08 09:13:15;;;;;;;22.30;19.95;;;24.90;89.00;;;;;;6275051;28;20604;-76
2021/06/08 09:16:22;;;;;;;26.90;24.05;;;24.90;89.50;;;;;;6274520;28;20188;-77
2021/06/08 09:19:25;;;;;;;24.90;21.88;;;24.70;89.90;;;;;;6274697;28;20384;-79
2021/06/08 09:22:47;;;;;;;25.15;22.70;;;24.30;90.40;;;;;;6256977;28;20129;-78
2021/06/08 09:25:51;;;;;;;25.08;22.42;;;24.10;92.20;;;;;;6251900;28;20553;-78
2021/06/08 09:28:52;;;;;;;23.27;20.98;;;23.90;91.40;;;;;;6252902;28;20045;-77
2021/06/08 09:32:20;;;;;;;26.60;23.83;;;23.70;91.90;;;;;;6252477;28;20064;-79
2021/06/08 09:35:30;;;;;;;23.88;21.17;;;23.60;93.00;;;;;;6253184;28;20045;-80
2021/06/08 09:38:41;;;;;;;23.92;21.15;;;23.50;93.10;;;;;;6265964;28;20615;-79
2021/06/08 09:41:44;;;;;;;26.73;23.92;;;23.70;93.20;;;;;;6276261;28;20191;-81
2021/06/08 09:44:45;;;;;;;24.23;22.02;;;24.00;91.90;;;;;;6278669;28;20140;-79
2021/06/08 09:47:58;;;;;;;25.10;22.33;;;24.30;91.40;;;;;;6277307;28;20080;-81
2021/06/08 09:50:59;;;;;;;24.73;22.25;;;24.40;91.40;;;;;;6276672;28;20053;-80
2021/06/08 09:54:01;;;;;;;24.98;21.65;;;24.10;91.00;;;;;;6276959;28;20068;-79
2021/06/08 09:57:19;;;;;;;26.50;23.80;;;23.90;92.00;;;;;;6277014;28;20081;-80
2021/06/08 10:00:20;;;;;;;30.17;24.17;;;23.70;92.20;;;;;;6276821;28;20080;-80
2021/06/08 10:03:34;;;;;;;26.02;23.50;;;23.50;92.60;;;;;;6277190;28;20478;-81
2021/06/08 10:06:37;;;;;;;23.08;20.88;;;23.30;93.00;;;;;;6276960;28;20122;-81
2021/06/08 10:09:38;;;;;;;27.75;24.27;;;23.20;93.50;;;;;;6279768;28;20051;-80
2021/06/08 10:12:58;;;;;;;27.75;24.98;;;23.10;93.20;;;;;;6280498;28;20083;-80
2021/06/08 10:16:04;;;;;;;27.05;24.08;;;23.20;94.00;;;;;;6280051;28;20049;-80
2021/06/08 10:19:07;;;;;;;27.40;24.80;;;23.20;93.60;;;;;;6280769;28;20083;-80
2021/06/08 10:22:29;;;;;;;25.77;23.25;;;23.10;93.30;;;;;;6283556;28;20055;-79
2021/06/08 10:25:30;;;;;;;26.15;23.70;;;22.90;94.20;;;;;;6280096;28;20114;-78
2021/06/08 10:28:32;;;;;;;25.30;22.70;;;23.00;93.90;;;;;;6275369;28;20106;-78
2021/06/08 10:31:36;;;;;;;24.48;22.27;;;23.20;93.90;;;;;;6276030;28;20056;-79
2021/06/08 10:34:40;;;;;;;23.63;20.95;;;23.50;92.70;;;;;;6278125;28;20060;-79
2021/06/08 10:37:42;;;;;;;28.15;25.27;;;23.60;93.20;;;;;;6274922;28;20414;-79
2021/06/08 10:40:45;;;;;;;26.02;23.55;;;23.70;92.30;;;;;;6276015;28;20084;-80
2021/06/08 10:43:47;;;;;;;24.20;21.20;;;23.90;91.60;;;;;;6274949;28;20136;-80
2021/06/08 10:46:51;;;;;;;23.05;20.73;;;24.00;91.40;;;;;;6275944;28;20123;-78
2021/06/08 10:49:55;;;;;;;22.77;20.58;;;24.20;91.00;;;;;;6274687;28;20502;-81
2021/06/08 10:52:58;;;;;;;23.23;21.00;;;24.20;90.80;;;;;;6274079;28;20041;-79
2021/06/08 10:56:00;;;;;;;24.27;21.90;;;24.40;90.60;;;;;;6274650;28;20045;-79
2021/06/08 10:59:03;;;;;;;21.70;19.27;;;24.50;90.10;;;;;;6273405;28;20132;-78
2021/06/08 11:02:05;;;;;;;23.70;21.17;;;24.50;90.20;;;;;;6273722;28;20498;-78
2021/06/08 11:05:08;;;;;;;23.52;21.20;;;24.60;90.40;;;;;;6274806;28;20070;-78
2021/06/08 11:08:10;;;;;;;24.20;21.80;;;24.60;88.80;;;;;;6275136;28;20514;-78
2021/06/08 11:11:11;;;;;;;25.58;23.05;;;24.70;88.70;;;;;;6274440;28;20055;-78
2021/06/08 11:14:47;;;;;;;25.25;22.90;;;24.70;87.60;;;;;;6275203;28;20069;-78
2021/06/08 11:17:49;;;;;;;24.98;22.65;;;24.80;89.20;;;;;;6270571;28;20051;-78
2021/06/08 11:21:24;;;;;;;23.90;21.17;;;24.70;88.50;;;;;;6274379;28;20108;-78
2021/06/08 11:24:44;;;;;;;25.10;22.63;;;24.70;89.80;;;;;;6274372;28;20045;-78
2021/06/08 11:27:55;;;;;;;22.65;20.33;;;24.90;88.60;;;;;;6274201;28;20476;-78
2021/06/08 11:30:59;;;;;;;23.05;20.60;;;24.90;87.70;;;;;;6274326;28;20088;-78
2021/06/08 11:34:02;;;;;;;23.95;21.58;;;24.90;87.60;;;;;;6274118;28;20060;-78
2021/06/08 11:37:43;;;;;;;22.42;20.25;;;24.90;87.00;;;;;;6274494;28;20488;-79
2021/06/08 11:40:49;;;;;;;24.20;21.77;;;25.00;87.70;;;;;;6274352;28;20704;-78
2021/06/08 11:43:54;;;;;;;23.55;21.05;;;25.20;85.60;;;;;;6274397;28;20132;-78
2021/06/08 11:46:58;;;;;;;23.17;20.88;;;25.40;84.30;;;;;;6273813;28;20072;-77
2021/06/08 11:50:00;;;;;;;23.35;21.17;;;25.70;82.20;;;;;;6273237;28;20215;-80
2021/06/08 11:53:13;;;;;;;22.60;20.45;;;25.90;81.70;;;;;;6273650;28;20077;-79
2021/06/08 11:56:15;;;;;;;21.67;19.45;;;26.20;81.60;;;;;;6279343;28;20076;-78
2021/06/08 11:59:18;;;;;;;23.98;21.65;;;26.50;79.40;;;;;;6275047;28;20068;-79
2021/06/08 12:02:30;;;;;;;22.75;20.60;;;26.80;76.60;;;;;;6276979;28;20065;-79
2021/06/08 12:05:43;;;;;;;23.50;20.98;;;27.10;75.90;;;;;;6276606;28;20128;-79
2021/06/08 12:08:45;;;;;;;21.92;19.63;;;27.30;75.50;;;;;;6277852;28;20409;-80
2021/06/08 12:11:47;;;;;;;22.77;20.67;;;27.40;73.80;;;;;;6277877;28;20161;-80
2021/06/08 12:14:51;;;;;;;24.08;20.70;;;27.40;72.30;;;;;;6278633;28;20069;-79
2021/06/08 12:18:03;;;;;;;22.08;19.98;;;27.50;71.60;;;;;;6277734;28;20045;-80
2021/06/08 12:21:11;;;;;;;22.23;20.00;;;27.40;72.60;;;;;;6275991;28;20056;-80
2021/06/08 12:24:20;;;;;;;23.80;21.30;;;27.10;72.60;;;;;;6278302;28;20522;-81
2021/06/08 12:27:36;;;;;;;24.90;22.45;;;26.90;72.50;;;;;;6277371;28;20123;-80
2021/06/08 12:30:38;;;;;;;23.38;21.33;;;26.80;72.60;;;;;;6277804;28;20049;-81
2021/06/08 12:33:40;;;;;;;20.15;18.27;;;26.60;73.10;;;;;;6277814;28;20055;-81
2021/06/08 12:36:44;;;;;;;25.50;20.30;;;26.70;72.60;;;;;;6278135;28;20437;-81
2021/06/08 12:39:52;;;;;;;22.38;20.35;;;26.80;73.10;;;;;;6277583;28;20052;-80
2021/06/08 12:43:00;;;;;;;22.90;20.67;;;26.80;71.80;;;;;;6278117;28;20060;-81
2021/06/08 12:46:01;;;;;;;22.00;19.85;;;26.80;71.50;;;;;;6277082;28;20041;-80
2021/06/08 12:49:04;;;;;;;21.48;19.27;;;26.80;71.60;;;;;;6276434;28;20518;-80
2021/06/08 12:52:07;;;;;;;20.83;18.63;;;26.90;72.00;;;;;;6259615;23;20084;-80
2021/06/08 12:55:13;;;;;;;20.67;18.35;;;27.00;70.50;;;;;;6251618;28;20057;-80
2021/06/08 12:58:17;;;;;;;24.53;21.37;;;27.10;69.10;;;;;;6244159;28;20054;-79
2021/06/08 13:01:18;;;;;;;21.92;19.65;;;27.10;69.00;;;;;;6234095;28;20120;-80
2021/06/08 13:04:20;;;;;;;20.05;18.05;;;27.40;69.00;;;;;;6255922;28;20068;-79
2021/06/08 13:07:24;;;;;;;20.08;18.27;;;27.60;68.20;;;;;;6234995;28;20042;-80
2021/06/08 13:10:30;;;;;;;23.40;20.95;;;27.90;67.10;;;;;;6244844;28;20041;-80
2021/06/08 13:13:33;;;;;;;20.88;18.60;;;28.00;66.90;;;;;;6250030;28;20702;-80
2021/06/08 13:16:36;;;;;;;19.35;17.17;;;28.00;66.70;;;;;;6230836;28;20085;-77
2021/06/08 13:19:37;;;;;;;22.90;19.10;;;27.90;64.90;;;;;;6251920;28;20453;-78
2021/06/08 13:22:38;;;;;;;22.27;19.55;;;27.60;65.20;;;;;;6238348;28;20069;-79
2021/06/08 13:25:41;;;;;;;22.13;19.83;;;27.40;65.40;;;;;;6238515;28;20041;-79
2021/06/08 13:28:44;;;;;;;20.02;18.08;;;27.10;67.20;;;;;;6255701;28;20099;-77
2021/06/08 13:31:47;;;;;;;22.52;18.75;;;26.80;67.10;;;;;;6230454;28;20046;-79
2021/06/08 13:35:05;;;;;;;20.90;18.90;;;26.70;67.50;;;;;;6246716;28;20096;-77
2021/06/08 13:38:08;;;;;;;21.80;19.15;;;26.60;67.40;;;;;;6244961;28;20111;-79
2021/06/08 13:41:11;;;;;;;21.38;19.23;;;26.50;68.20;;;;;;6232402;28;20045;-78
2021/06/08 13:44:13;;;;;;;21.95;19.77;;;26.50;68.20;;;;;;6255359;28;20111;-79
2021/06/08 13:47:14;;;;;;;19.35;17.55;;;26.50;66.90;;;;;;6233918;28;20050;-79
2021/06/08 13:50:23;;;;;;;20.23;18.25;;;26.60;67.40;;;;;;6241121;28;20518;-79
2021/06/08 13:53:24;;;;;;;21.80;19.60;;;26.80;68.00;;;;;;6249419;28;20073;-78
2021/06/08 13:56:35;;;;;;;18.85;17.05;;;27.10;66.90;;;;;;6229415;28;20060;-77
2021/06/08 14:03:04;;;;;;;17.80;16.15;;;27.60;65.00;;;;;;6235832;28;20037;-78
2021/06/08 14:06:10;;;;;;;16.70;15.15;;;27.60;65.90;;;;;;6240767;28;20053;-79
2021/06/08 14:09:12;;;;;;;18.52;16.60;;;27.50;65.60;;;;;;6251388;28;20045;-77
2021/06/08 14:12:15;;;;;;;17.85;16.05;;;27.30;66.10;;;;;;6231369;28;20073;-78
2021/06/08 14:15:17;;;;;;;21.95;16.35;;;27.30;65.60;;;;;;6250064;28;20052;-78
2021/06/08 14:18:19;;;;;;;18.73;16.83;;;27.20;66.70;;;;;;6236267;28;20045;-76
2021/06/08 14:21:21;;;;;;;17.58;15.98;;;27.30;65.70;;;;;;6203850;28;20046;-77
2021/06/08 14:24:23;;;;;;;16.73;15.07;;;27.50;64.90;;;;;;6203502;28;20077;-77
2021/06/08 14:27:25;;;;;;;19.95;17.92;;;27.80;64.70;;;;;;6204175;28;20053;-78
2021/06/08 14:30:27;;;;;;;16.73;14.98;;;28.20;63.60;;;;;;6204436;28;20066;-76
2021/06/08 14:33:28;;;;;;;16.40;14.73;;;28.50;62.30;;;;;;6205341;28;20100;-79
2021/06/08 14:36:29;;;;;;;20.17;14.73;;;28.70;62.70;;;;;;6205473;28;20110;-78
2021/06/08 14:39:31;;;;;;;17.15;15.55;;;28.60;61.50;;;;;;6204626;28;20134;-78
2021/06/08 14:42:34;;;;;;;16.67;14.68;;;28.60;61.90;;;;;;6203873;28;20042;-78
2021/06/08 14:45:35;;;;;;;16.52;14.73;;;28.70;61.40;;;;;;6205097;28;20080;-79
2021/06/08 14:48:36;;;;;;;14.82;13.50;;;28.70;60.30;;;;;;6203147;28;20073;-78
2021/06/08 14:51:38;;;;;;;14.40;13.10;;;28.70;60.80;;;;;;6203947;28;20049;-78
2021/06/08 14:54:39;;;;;;;14.70;13.40;;;28.40;60.80;;;;;;6203694;28;20126;-78
2021/06/08 14:57:42;;;;;;;15.40;14.05;;;28.20;61.10;;;;;;6205111;28;20070;-78
2021/06/08 15:00:44;;;;;;;16.27;14.13;;;28.00;61.10;;;;;;6207633;28;20535;-78
2021/06/08 15:03:45;;;;;;;14.63;13.13;;;28.10;60.20;;;;;;6227141;28;20050;-77
2021/06/08 15:06:47;;;;;;;14.57;13.13;;;28.10;60.60;;;;;;6229004;28;20128;-78
2021/06/08 15:09:49;;;;;;;15.38;12.60;;;27.90;60.90;;;;;;6236947;28;20099;-78
2021/06/08 15:12:51;;;;;;;14.63;13.27;;;27.70;60.90;;;;;;6252653;28;20557;-78
2021/06/08 15:15:53;;;;;;;14.73;13.23;;;27.70;61.00;;;;;;6228920;28;20074;-77
2021/06/08 15:18:54;;;;;;;14.43;13.00;;;27.90;60.50;;;;;;6246288;28;20069;-79
2021/06/08 15:21:55;;;;;;;13.40;12.18;;;28.20;60.10;;;;;;6241620;28;20534;-79
2021/06/08 15:24:57;;;;;;;14.43;11.45;;;28.50;59.40;;;;;;6227439;28;20132;-78
2021/06/08 15:27:59;;;;;;;15.25;13.73;;;28.50;58.40;;;;;;6227849;28;20056;-78
2021/06/08 15:31:03;;;;;;;15.18;13.68;;;28.30;59.30;;;;;;6232228;28;20419;-78
2021/06/08 15:34:07;;;;;;;13.32;12.18;;;27.90;59.00;;;;;;6231783;28;20096;-79
2021/06/08 15:37:10;;;;;;;13.38;12.10;;;27.50;60.80;;;;;;6233284;28;20136;-79